createdAt,value
2023-01-19T00:02:12.249Z,-0.55
2023-01-19T00:04:38.779Z,-0.53
2023-01-19T00:07:05.367Z,-0.51
2023-01-19T00:09:31.755Z,-0.52
2023-01-19T00:11:58.291Z,-0.53
2023-01-19T00:14:24.944Z,-0.51
2023-01-19T00:16:51.475Z,-0.47
2023-01-19T00:19:18.013Z,-0.44
2023-01-19T00:21:44.445Z,-0.42
2023-01-19T00:24:10.895Z,-0.41
2023-01-19T00:26:37.443Z,-0.39
2023-01-19T00:29:03.982Z,-0.39
2023-01-19T00:31:30.501Z,-0.39
2023-01-19T00:33:57.070Z,-0.37
2023-01-19T00:36:23.810Z,-0.34
2023-01-19T00:38:50.249Z,-0.34
2023-01-19T00:41:17.729Z,-0.36
2023-01-19T00:43:44.468Z,-0.36
2023-01-19T00:46:11.161Z,-0.32
2023-01-19T00:48:37.769Z,-0.32
2023-01-19T00:51:04.803Z,-0.33
2023-01-19T00:53:31.344Z,-0.36
2023-01-19T00:55:58.400Z,-0.34
2023-01-19T00:58:25.147Z,-0.32
2023-01-19T01:00:53.660Z,-0.31
2023-01-19T01:03:20.347Z,-0.30
2023-01-19T01:05:46.781Z,-0.30
2023-01-19T01:08:13.440Z,-0.30
2023-01-19T01:10:39.986Z,-0.29
2023-01-19T01:13:21.098Z,-0.30
2023-01-19T01:15:54.159Z,-0.31
2023-01-19T01:18:21.445Z,-0.33
2023-01-19T01:20:47.914Z,-0.35
2023-01-19T01:23:14.814Z,-0.36
2023-01-19T01:25:41.600Z,-0.36
2023-01-19T01:28:09.043Z,-0.37
2023-01-19T01:30:36.436Z,-0.37
2023-01-19T01:33:03.207Z,-0.37
2023-01-19T01:35:29.913Z,-0.40
2023-01-19T01:37:58.500Z,-0.41
2023-01-19T01:40:25.022Z,-0.43
2023-01-19T01:42:51.565Z,-0.43
2023-01-19T01:45:37.639Z,-0.45
2023-01-19T01:48:13.224Z,-0.45
2023-01-19T01:50:48.160Z,-0.46
2023-01-19T01:53:16.143Z,-0.48
2023-01-19T01:55:48.369Z,-0.47
2023-01-19T01:58:16.578Z,-0.46
2023-01-19T02:00:43.434Z,-0.44
2023-01-19T02:03:12.652Z,-0.41
2023-01-19T02:05:39.973Z,-0.37
2023-01-19T02:08:11.766Z,-0.35
2023-01-19T02:10:39.859Z,-0.33
2023-01-19T02:13:06.695Z,-0.30
2023-01-19T02:15:33.222Z,-0.30
2023-01-19T02:17:59.735Z,-0.31
2023-01-19T02:20:30.375Z,-0.31
2023-01-19T02:23:03.667Z,-0.29
2023-01-19T02:25:30.933Z,-0.30
2023-01-19T02:27:58.046Z,-0.30
2023-01-19T02:30:24.695Z,-0.29
2023-01-19T02:32:51.160Z,-0.28
2023-01-19T02:35:17.859Z,-0.24
2023-01-19T02:37:45.424Z,-0.23
2023-01-19T02:40:14.957Z,-0.23
2023-01-19T02:42:49.566Z,-0.22
2023-01-19T02:45:21.836Z,-0.21
2023-01-19T02:47:51.613Z,-0.23
2023-01-19T02:50:36.232Z,-0.23
2023-01-19T02:53:11.970Z,-0.22
2023-01-19T02:55:40.374Z,-0.21
2023-01-19T02:58:16.450Z,-0.19
2023-01-19T03:00:43.124Z,-0.18
2023-01-19T03:03:22.741Z,-0.16
2023-01-19T03:06:01.571Z,-0.14
2023-01-19T03:08:37.669Z,-0.09
2023-01-19T03:11:08.256Z,-0.06
2023-01-19T03:13:56.488Z,-0.03
2023-01-19T03:16:38.106Z,0.01
2023-01-19T03:19:07.982Z,0.02
2023-01-19T03:21:37.128Z,0.03
2023-01-19T03:24:08.212Z,0.03
2023-01-19T03:26:40.042Z,0.04
2023-01-19T03:29:09.176Z,0.06
2023-01-19T03:31:37.908Z,0.08
2023-01-19T03:34:08.354Z,0.09
2023-01-19T03:36:43.858Z,0.10
2023-01-19T03:39:14.418Z,0.10
2023-01-19T03:41:42.493Z,0.11
2023-01-19T03:44:11.240Z,0.12
2023-01-19T03:46:39.077Z,0.14
2023-01-19T03:49:06.157Z,0.14
2023-01-19T03:51:36.916Z,0.15
2023-01-19T03:54:05.149Z,0.17
2023-01-19T03:56:31.917Z,0.17
2023-01-19T03:58:58.677Z,0.18
2023-01-19T04:01:25.596Z,0.19
2023-01-19T04:03:53.274Z,0.17
2023-01-19T04:06:21.336Z,0.14
2023-01-19T04:08:49.874Z,0.13
2023-01-19T04:11:17.266Z,0.13
2023-01-19T04:13:43.931Z,0.11
2023-01-19T04:16:11.698Z,0.10
2023-01-19T04:18:38.604Z,0.07
2023-01-19T04:21:07.168Z,0.03
2023-01-19T04:23:34.497Z,0.00
2023-01-19T04:26:06.769Z,-0.02
2023-01-19T04:28:35.010Z,-0.04
2023-01-19T04:31:01.879Z,-0.05
2023-01-19T04:33:28.964Z,-0.07
2023-01-19T04:35:56.083Z,-0.09
2023-01-19T04:38:24.039Z,-0.09
2023-01-19T04:40:51.570Z,-0.09
2023-01-19T04:43:22.100Z,-0.11
2023-01-19T04:45:49.341Z,-0.10
2023-01-19T04:48:17.524Z,-0.09
2023-01-19T04:50:44.449Z,-0.08
2023-01-19T04:53:10.941Z,-0.06
2023-01-19T04:55:38.516Z,-0.03
2023-01-19T04:58:05.774Z,-0.03
2023-01-19T05:00:32.329Z,-0.05
2023-01-19T05:02:59.109Z,-0.06
2023-01-19T05:05:26.383Z,-0.06
2023-01-19T05:07:53.603Z,-0.07
2023-01-19T05:10:20.892Z,-0.11
2023-01-19T05:12:47.713Z,-0.12
2023-01-19T05:15:14.213Z,-0.10
2023-01-19T05:17:40.719Z,-0.13
2023-01-19T05:20:10.580Z,-0.17
2023-01-19T05:22:37.849Z,-0.19
2023-01-19T05:25:05.796Z,-0.19
2023-01-19T05:27:32.524Z,-0.19
2023-01-19T05:29:59.063Z,-0.20
2023-01-19T05:32:25.621Z,-0.21
2023-01-19T05:34:52.083Z,-0.20
2023-01-19T05:37:18.785Z,-0.19
2023-01-19T05:39:45.730Z,-0.19
2023-01-19T05:42:12.267Z,-0.17
2023-01-19T05:44:38.733Z,-0.16
2023-01-19T05:47:05.298Z,-0.16
2023-01-19T05:49:31.787Z,-0.15
2023-01-19T05:51:58.191Z,-0.14
2023-01-19T05:54:24.672Z,-0.12
2023-01-19T05:56:51.124Z,-0.12
2023-01-19T05:59:17.569Z,-0.11
2023-01-19T06:01:43.990Z,-0.11
2023-01-19T06:04:10.514Z,-0.10
2023-01-19T06:06:36.963Z,-0.11
2023-01-19T06:09:03.528Z,-0.13
2023-01-19T06:11:30.111Z,-0.14
2023-01-19T06:13:56.779Z,-0.16
2023-01-19T06:16:23.355Z,-0.15
2023-01-19T06:18:50.137Z,-0.18
2023-01-19T06:21:16.593Z,-0.19
2023-01-19T06:23:43.333Z,-0.17
2023-01-19T06:26:10.853Z,-0.15
2023-01-19T06:28:37.462Z,-0.16
2023-01-19T06:31:04.073Z,-0.18
2023-01-19T06:33:31.450Z,-0.18
2023-01-19T06:35:57.896Z,-0.18
2023-01-19T06:38:24.511Z,-0.18
2023-01-19T06:40:56.594Z,-0.18
2023-01-19T06:43:23.385Z,-0.19
2023-01-19T06:45:49.919Z,-0.19
2023-01-19T06:48:17.188Z,-0.20
2023-01-19T06:50:47.979Z,-0.20
2023-01-19T06:53:16.136Z,-0.22
2023-01-19T06:55:44.111Z,-0.21
2023-01-19T06:58:11.587Z,-0.20
2023-01-19T07:00:38.647Z,-0.19
2023-01-19T07:03:08.747Z,-0.20
2023-01-19T07:05:36.105Z,-0.19
2023-01-19T07:08:02.913Z,-0.20
2023-01-19T07:11:22.288Z,-0.18
2023-01-19T07:13:16.273Z,-0.18
2023-01-19T07:15:43.647Z,-0.16
2023-01-19T07:18:10.227Z,-0.15
2023-01-19T07:20:37.906Z,-0.14
2023-01-19T07:23:04.659Z,-0.12
2023-01-19T07:25:31.396Z,-0.10
2023-01-19T07:28:01.248Z,-0.10
2023-01-19T07:30:28.567Z,-0.08
2023-01-19T07:32:56.685Z,-0.07
2023-01-19T07:35:24.519Z,-0.05
2023-01-19T07:37:51.058Z,-0.04
2023-01-19T07:40:17.558Z,-0.02
2023-01-19T07:42:48.946Z,-0.02
2023-01-19T07:45:16.208Z,-0.01
2023-01-19T07:47:44.291Z,0.00
2023-01-19T07:50:12.801Z,0.01
2023-01-19T07:52:39.626Z,0.02
2023-01-19T07:55:07.183Z,0.04
2023-01-19T07:57:34.136Z,0.06
2023-01-19T08:00:00.924Z,0.07
2023-01-19T08:02:27.620Z,0.09
2023-01-19T08:04:54.182Z,0.10
2023-01-19T08:07:24.975Z,0.12
2023-01-19T08:09:51.530Z,0.13
2023-01-19T08:12:17.961Z,0.16
2023-01-19T08:14:44.507Z,0.18
2023-01-19T08:17:13.280Z,0.19
2023-01-19T08:19:41.550Z,0.22
2023-01-19T08:22:08.184Z,0.22
2023-01-19T08:24:34.874Z,0.23
2023-01-19T08:27:02.758Z,0.26
2023-01-19T08:29:30.025Z,0.28
2023-01-19T08:31:57.159Z,0.29
2023-01-19T08:34:23.793Z,0.31
2023-01-19T08:36:50.251Z,0.32
2023-01-19T08:39:16.765Z,0.34
2023-01-19T08:41:43.509Z,0.36
2023-01-19T08:44:10.416Z,0.39
2023-01-19T08:46:37.023Z,0.41
2023-01-19T08:49:03.572Z,0.44
2023-01-19T08:51:30.069Z,0.44
2023-01-19T08:53:56.507Z,0.45
2023-01-19T08:56:22.900Z,0.45
2023-01-19T08:58:59.503Z,0.46
2023-01-19T09:01:34.198Z,0.48
2023-01-19T09:04:00.898Z,0.49
2023-01-19T09:06:27.436Z,0.50
2023-01-19T09:08:54.006Z,0.52
2023-01-19T09:11:20.490Z,0.53
2023-01-19T09:13:46.959Z,0.54
2023-01-19T09:16:13.602Z,0.54
2023-01-19T09:18:40.708Z,0.54
2023-01-19T09:21:07.731Z,0.55
2023-01-19T09:23:34.434Z,0.56
2023-01-19T09:26:03.027Z,0.57
2023-01-19T09:28:29.486Z,0.59
2023-01-19T09:30:56.754Z,0.60
2023-01-19T09:33:24.172Z,0.62
2023-01-19T09:35:51.132Z,0.61
2023-01-19T09:38:19.312Z,0.62
2023-01-19T09:40:52.703Z,0.63
2023-01-19T09:43:34.299Z,0.64
2023-01-19T09:46:01.700Z,0.64
2023-01-19T09:48:58.411Z,0.62
2023-01-19T09:51:35.011Z,0.58
2023-01-19T09:54:23.122Z,0.58
2023-01-19T09:56:52.740Z,0.60
2023-01-19T09:59:30.023Z,0.57
2023-01-19T10:02:31.581Z,0.55
2023-01-19T10:05:35.963Z,0.54
2023-01-19T10:08:10.896Z,0.50
2023-01-19T10:10:40.567Z,0.49
2023-01-19T10:13:17.188Z,0.51
2023-01-19T10:15:54.790Z,0.53
2023-01-19T10:18:27.629Z,0.53
2023-01-19T10:21:06.160Z,0.52
2023-01-19T10:23:54.033Z,0.53
2023-01-19T10:26:23.829Z,0.53
2023-01-19T10:28:54.360Z,0.55
2023-01-19T10:31:24.023Z,0.57
2023-01-19T10:33:51.425Z,0.57
2023-01-19T10:36:21.363Z,0.58
2023-01-19T10:38:48.604Z,0.59
2023-01-19T10:41:19.988Z,0.56
2023-01-19T10:43:47.779Z,0.54
2023-01-19T10:46:37.976Z,0.52
2023-01-19T10:49:05.561Z,0.53
2023-01-19T10:51:32.058Z,0.49
2023-01-19T10:54:04.965Z,0.47
2023-01-19T10:56:35.465Z,0.45
2023-01-19T10:59:05.001Z,0.44
2023-01-19T11:01:32.290Z,0.45
2023-01-19T11:03:58.937Z,0.45
2023-01-19T11:06:30.483Z,0.45
2023-01-19T11:09:19.910Z,0.44
2023-01-19T11:11:51.255Z,0.42
2023-01-19T11:14:22.057Z,0.40
2023-01-19T11:16:53.000Z,0.40
2023-01-19T11:19:25.730Z,0.40
2023-01-19T11:21:52.991Z,0.40
2023-01-19T11:24:20.552Z,0.40
2023-01-19T11:26:56.431Z,0.38
2023-01-19T11:29:26.877Z,0.38
2023-01-19T11:31:55.066Z,0.38
2023-01-19T11:34:26.979Z,0.36
2023-01-19T11:37:03.058Z,0.33
2023-01-19T11:39:32.166Z,0.31
2023-01-19T11:42:03.496Z,0.31
2023-01-19T11:44:36.491Z,0.30
2023-01-19T11:47:20.547Z,0.30
2023-01-19T11:49:59.200Z,0.31
2023-01-19T11:52:37.685Z,0.31
2023-01-19T11:55:11.049Z,0.31
2023-01-19T11:57:39.328Z,0.30
2023-01-19T12:00:22.584Z,0.31
2023-01-19T12:02:52.997Z,0.33
2023-01-19T12:05:21.285Z,0.34
2023-01-19T12:07:50.937Z,0.36
2023-01-19T12:10:26.100Z,0.36
2023-01-19T12:12:53.923Z,0.36
2023-01-19T12:15:41.914Z,0.38
2023-01-19T12:18:24.707Z,0.37
2023-01-19T12:20:55.624Z,0.37
2023-01-19T12:23:40.589Z,0.37
2023-01-19T12:26:12.849Z,0.38
2023-01-19T12:28:42.978Z,0.37
2023-01-19T12:31:10.518Z,0.36
2023-01-19T12:33:40.261Z,0.36
2023-01-19T12:36:31.270Z,0.36
2023-01-19T12:39:20.768Z,0.34
2023-01-19T12:41:48.273Z,0.30
2023-01-19T12:44:21.404Z,0.31
2023-01-19T12:47:17.059Z,0.31
2023-01-19T12:49:53.112Z,0.31
2023-01-19T12:52:33.320Z,0.30
2023-01-19T12:55:15.254Z,0.30
2023-01-19T12:57:56.652Z,0.30
2023-01-19T13:00:23.041Z,0.29
2023-01-19T13:03:01.844Z,0.28
2023-01-19T13:05:32.848Z,0.27
2023-01-19T13:08:02.769Z,0.22
2023-01-19T13:11:08.379Z,0.15
2023-01-19T13:13:35.893Z,0.10
2023-01-19T13:16:20.763Z,0.06
2023-01-19T13:18:56.143Z,0.04
2023-01-19T13:21:44.873Z,0.03
2023-01-19T13:24:14.310Z,0.03
2023-01-19T13:26:50.047Z,0.02
2023-01-19T13:29:35.425Z,0.01
2023-01-19T13:32:13.229Z,-0.03
2023-01-19T13:34:46.852Z,-0.06
2023-01-19T13:37:19.969Z,-0.06
2023-01-19T13:39:48.654Z,-0.07
2023-01-19T13:42:18.025Z,-0.08
2023-01-19T13:44:52.284Z,-0.10
2023-01-19T13:47:24.560Z,-0.10
2023-01-19T13:49:56.125Z,-0.11
2023-01-19T13:52:25.186Z,-0.11
2023-01-19T13:55:02.806Z,-0.12
2023-01-19T13:57:44.228Z,-0.12
2023-01-19T14:00:10.748Z,-0.12
2023-01-19T14:03:00.742Z,-0.13
2023-01-19T14:05:36.333Z,-0.14
2023-01-19T14:08:08.900Z,-0.16
2023-01-19T14:10:37.835Z,-0.17
2023-01-19T14:13:12.784Z,-0.18
2023-01-19T14:15:40.115Z,-0.18
2023-01-19T14:18:23.337Z,-0.18
2023-01-19T14:20:58.779Z,-0.18
2023-01-19T14:23:43.040Z,-0.19
2023-01-19T14:26:37.872Z,-0.20
2023-01-19T14:29:14.323Z,-0.20
2023-01-19T14:31:49.699Z,-0.21
2023-01-19T14:34:33.220Z,-0.22
2023-01-19T14:37:01.813Z,-0.22
2023-01-19T14:39:32.124Z,-0.22
2023-01-19T14:42:01.993Z,-0.24
2023-01-19T14:44:32.317Z,-0.24
2023-01-19T14:46:59.551Z,-0.24
2023-01-19T14:49:40.358Z,-0.24
2023-01-19T14:52:20.317Z,-0.25
2023-01-19T14:54:48.458Z,-0.26
2023-01-19T14:57:15.269Z,-0.26
2023-01-19T14:59:42.320Z,-0.26
2023-01-19T15:02:09.275Z,-0.25
2023-01-19T15:04:35.947Z,-0.27
2023-01-19T15:07:02.630Z,-0.26
2023-01-19T15:09:29.326Z,-0.27
2023-01-19T15:11:55.980Z,-0.27
2023-01-19T15:14:22.760Z,-0.27
2023-01-19T15:16:50.080Z,-0.27
2023-01-19T15:19:18.049Z,-0.27
2023-01-19T15:21:44.707Z,-0.26
2023-01-19T15:24:12.350Z,-0.27
2023-01-19T15:26:41.967Z,-0.27
2023-01-19T15:29:15.979Z,-0.25
2023-01-19T15:31:42.552Z,-0.25
2023-01-19T15:34:12.458Z,-0.26
2023-01-19T15:36:39.284Z,-0.27
2023-01-19T15:39:06.063Z,-0.28
2023-01-19T15:41:32.713Z,-0.27
2023-01-19T15:43:59.325Z,-0.27
2023-01-19T15:46:26.706Z,-0.28
2023-01-19T15:48:54.263Z,-0.28
2023-01-19T15:51:24.497Z,-0.29
2023-01-19T15:53:51.524Z,-0.27
2023-01-19T15:56:21.523Z,-0.25
2023-01-19T15:58:48.294Z,-0.26
2023-01-19T16:01:16.972Z,-0.26
2023-01-19T16:03:44.121Z,-0.26
2023-01-19T16:06:10.998Z,-0.25
2023-01-19T16:08:38.063Z,-0.24
2023-01-19T16:11:13.806Z,-0.23
2023-01-19T16:13:43.921Z,-0.24
2023-01-19T16:16:19.075Z,-0.23
2023-01-19T16:18:45.771Z,-0.22
2023-01-19T16:21:12.285Z,-0.21
2023-01-19T16:23:38.847Z,-0.21
2023-01-19T16:26:08.108Z,-0.21
2023-01-19T16:28:35.827Z,-0.22
2023-01-19T16:31:02.349Z,-0.21
2023-01-19T16:33:29.026Z,-0.20
2023-01-19T16:35:55.682Z,-0.19
2023-01-19T16:38:23.808Z,-0.20
2023-01-19T16:40:50.507Z,-0.22
2023-01-19T16:43:17.422Z,-0.23
2023-01-19T16:45:58.031Z,-0.23
2023-01-19T16:48:25.724Z,-0.23
2023-01-19T16:50:59.151Z,-0.22
2023-01-19T16:53:26.037Z,-0.18
2023-01-19T16:55:52.576Z,-0.16
2023-01-19T16:58:19.817Z,-0.15
2023-01-19T17:00:46.418Z,-0.11
2023-01-19T17:03:13.425Z,-0.12
2023-01-19T17:05:40.109Z,-0.15
2023-01-19T17:08:06.543Z,-0.18
2023-01-19T17:10:36.246Z,-0.20
2023-01-19T17:13:02.862Z,-0.20
2023-01-19T17:15:30.714Z,-0.19
2023-01-19T17:17:57.254Z,-0.18
2023-01-19T17:20:23.667Z,-0.18
2023-01-19T17:22:50.160Z,-0.16
2023-01-19T17:25:16.819Z,-0.14
2023-01-19T17:27:43.384Z,-0.14
2023-01-19T17:30:10.774Z,-0.16
2023-01-19T17:32:37.754Z,-0.16
2023-01-19T17:35:04.907Z,-0.16
2023-01-19T17:37:31.458Z,-0.15
2023-01-19T17:39:57.955Z,-0.15
2023-01-19T17:42:24.471Z,-0.14
2023-01-19T17:44:51.072Z,-0.11
2023-01-19T17:47:17.609Z,-0.07
2023-01-19T17:49:44.109Z,-0.05
2023-01-19T17:52:10.512Z,-0.04
2023-01-19T17:54:37.235Z,-0.06
2023-01-19T17:57:03.769Z,-0.06
2023-01-19T17:59:30.512Z,-0.03
2023-01-19T18:01:56.959Z,-0.04
2023-01-19T18:04:23.644Z,-0.06
2023-01-19T18:06:50.444Z,-0.08
2023-01-19T18:09:16.959Z,-0.11
2023-01-19T18:11:43.428Z,-0.14
2023-01-19T18:14:09.952Z,-0.17
2023-01-19T18:16:36.537Z,-0.20
2023-01-19T18:19:03.662Z,-0.22
2023-01-19T18:21:30.366Z,-0.24
2023-01-19T18:24:02.632Z,-0.26
2023-01-19T18:26:30.575Z,-0.25
2023-01-19T18:28:58.435Z,-0.26
2023-01-19T18:31:26.288Z,-0.25
2023-01-19T18:33:53.874Z,-0.24
2023-01-19T18:36:20.369Z,-0.23
2023-01-19T18:38:47.353Z,-0.20
2023-01-19T18:41:17.321Z,-0.17
2023-01-19T18:43:44.421Z,-0.17
2023-01-19T18:46:11.111Z,-0.17
2023-01-19T18:48:41.730Z,-0.16
2023-01-19T18:51:10.865Z,-0.16
2023-01-19T18:53:38.593Z,-0.18
2023-01-19T18:56:06.423Z,-0.22
2023-01-19T18:58:36.470Z,-0.25
2023-01-19T19:01:03.550Z,-0.28
2023-01-19T19:03:31.401Z,-0.30
2023-01-19T19:06:03.070Z,-0.31
2023-01-19T19:08:29.701Z,-0.31
2023-01-19T19:10:56.238Z,-0.30
2023-01-19T19:13:22.622Z,-0.29
2023-01-19T19:15:49.682Z,-0.31
2023-01-19T19:18:16.138Z,-0.32
2023-01-19T19:20:42.538Z,-0.34
2023-01-19T19:23:12.641Z,-0.34
2023-01-19T19:25:39.408Z,-0.35
2023-01-19T19:28:06.748Z,-0.34
2023-01-19T19:30:33.490Z,-0.34
2023-01-19T19:33:00.106Z,-0.34
2023-01-19T19:35:26.857Z,-0.32
2023-01-19T19:37:53.835Z,-0.30
2023-01-19T19:40:20.794Z,-0.29
2023-01-19T19:42:47.539Z,-0.29
2023-01-19T19:45:14.183Z,-0.30
2023-01-19T19:47:40.630Z,-0.30
2023-01-19T19:50:07.792Z,-0.29
2023-01-19T19:52:38.404Z,-0.27
2023-01-19T19:55:06.677Z,-0.28
2023-01-19T19:57:33.547Z,-0.30
2023-01-19T20:00:00.296Z,-0.31
2023-01-19T20:02:26.822Z,-0.30
2023-01-19T20:04:53.485Z,-0.29
2023-01-19T20:07:20.303Z,-0.27
2023-01-19T20:09:46.915Z,-0.25
2023-01-19T20:12:13.692Z,-0.24
2023-01-19T20:14:40.531Z,-0.23
2023-01-19T20:17:07.170Z,-0.21
2023-01-19T20:19:33.925Z,-0.20
2023-01-19T20:22:00.464Z,-0.20
2023-01-19T20:24:27.339Z,-0.21
2023-01-19T20:26:53.781Z,-0.20
2023-01-19T20:29:21.218Z,-0.18
2023-01-19T20:31:51.711Z,-0.18
2023-01-19T20:34:20.564Z,-0.18
2023-01-19T20:36:47.049Z,-0.18
2023-01-19T20:39:13.527Z,-0.19
2023-01-19T20:41:40.349Z,-0.18
2023-01-19T20:44:07.015Z,-0.17
2023-01-19T20:46:33.557Z,-0.18
2023-01-19T20:48:59.951Z,-0.18
2023-01-19T20:51:26.363Z,-0.19
2023-01-19T20:53:53.647Z,-0.19
2023-01-19T20:56:20.333Z,-0.19
2023-01-19T20:58:46.884Z,-0.20
2023-01-19T21:01:19.807Z,-0.20
2023-01-19T21:03:47.647Z,-0.20
2023-01-19T21:06:14.989Z,-0.22
2023-01-19T21:08:41.949Z,-0.22
2023-01-19T21:11:09.516Z,-0.24
2023-01-19T21:13:36.658Z,-0.27
2023-01-19T21:16:04.497Z,-0.28
2023-01-19T21:18:31.387Z,-0.30
2023-01-19T21:20:58.031Z,-0.30
2023-01-19T21:23:26.912Z,-0.32
2023-01-19T21:25:56.474Z,-0.32
2023-01-19T21:28:23.860Z,-0.32
2023-01-19T21:30:51.779Z,-0.31
2023-01-19T21:33:19.140Z,-0.30
2023-01-19T21:35:56.912Z,-0.28
2023-01-19T21:38:25.814Z,-0.24
2023-01-19T21:40:53.068Z,-0.25
2023-01-19T21:43:20.744Z,-0.24
2023-01-19T21:45:48.851Z,-0.23
2023-01-19T21:48:16.794Z,-0.23
2023-01-19T21:50:43.740Z,-0.22
2023-01-19T21:53:10.357Z,-0.21
2023-01-19T21:55:44.609Z,-0.22
2023-01-19T21:58:11.083Z,-0.22
2023-01-19T22:00:37.708Z,-0.21
2023-01-19T22:03:04.972Z,-0.20
2023-01-19T22:05:36.534Z,-0.20
2023-01-19T22:08:05.443Z,-0.19
2023-01-19T22:10:32.027Z,-0.17
2023-01-19T22:12:58.497Z,-0.15
2023-01-19T22:15:25.120Z,-0.17
2023-01-19T22:17:51.598Z,-0.19
2023-01-19T22:20:18.302Z,-0.21
2023-01-19T22:22:44.891Z,-0.23
2023-01-19T22:25:11.512Z,-0.25
2023-01-19T22:27:38.215Z,-0.25
2023-01-19T22:30:05.510Z,-0.23
2023-01-19T22:32:32.037Z,-0.22
2023-01-19T22:34:58.437Z,-0.25
2023-01-19T22:37:24.997Z,-0.27
2023-01-19T22:39:53.592Z,-0.29
2023-01-19T22:42:20.319Z,-0.28
2023-01-19T22:44:46.893Z,-0.26
2023-01-19T22:47:13.601Z,-0.25
2023-01-19T22:49:40.176Z,-0.25
2023-01-19T22:52:06.789Z,-0.26
2023-01-19T22:54:33.327Z,-0.23
2023-01-19T22:57:00.110Z,-0.23
2023-01-19T22:59:26.708Z,-0.23
2023-01-19T23:01:53.500Z,-0.26
2023-01-19T23:04:20.139Z,-0.26
2023-01-19T23:06:48.052Z,-0.27
2023-01-19T23:09:15.024Z,-0.27
2023-01-19T23:11:47.185Z,-0.26
2023-01-19T23:14:16.187Z,-0.25
2023-01-19T23:16:42.848Z,-0.24
2023-01-19T23:19:12.015Z,-0.23
2023-01-19T23:21:38.781Z,-0.22
2023-01-19T23:24:05.951Z,-0.23
2023-01-19T23:26:33.067Z,-0.23
2023-01-19T23:29:01.707Z,-0.22
2023-01-19T23:31:31.446Z,-0.24
2023-01-19T23:34:00.354Z,-0.25
2023-01-19T23:36:29.794Z,-0.23
2023-01-19T23:38:58.572Z,-0.25
2023-01-19T23:41:26.190Z,-0.26
2023-01-19T23:43:52.634Z,-0.25
2023-01-19T23:46:20.370Z,-0.24
2023-01-19T23:48:47.622Z,-0.26
2023-01-19T23:51:20.903Z,-0.29
2023-01-19T23:53:48.498Z,-0.29
2023-01-19T23:56:19.786Z,-0.27
2023-01-19T23:58:48.450Z,-0.26
